• Join FlightAware (Why Join?)
  • Login
  • US Flag 
 
02:33PM EST


 

Airport Tracker/Info


-or-


 

Live Flight TrackerFlight Track Log ✈ DAL1737 ✈ 22-Jun-2013 ✈ KBWI - KDTW

Flight Track Log - Related Links

Times and Time Zones

All times are in EDT time to prevent confusion due to time zone crossing. See the DAL1737 flight status page for this flight to view local times or setup timezone preferences in your user account.

Time Position Orientation Groundspeed Altitude Reporting Facility
EDT Latitude Longitude Course Direction KTS MPH feet Rate Location/Type
09:54AM 39.1833 -76.7167 285° West 181 208 1,400  Level Potomac TRACON
09:55AM 39.1833 -76.7833 270° West 224 258 3,200 2,700 Climbing Potomac TRACON
09:57AM 39.2000 -77.0611 270° West  Level FlightAware Approximate
09:58AM 39.2334 -77.1667 322° Northwest  Level FlightAware Approximate
09:58AM 39.2217 -77.0250 282° West 285 328 10,800  Level Washington Center
09:59AM 39.3162 -77.2495 322° Northwest  Level FlightAware Approximate
09:59AM 39.2456 -77.1244 287° West 285 328 13,900  Level Washington Center
10:00AM 39.3859 -77.3461 285° West  Level FlightAware Approximate
10:00AM 39.2900 -77.2275 299° West 299 344 16,000  Level Washington Center
10:01AM 39.3444 -77.3494 300° West 345 397 17,100 1,500 Climbing Washington Center
10:02AM 39.3739 -77.4817 286° West 400 460 19,000 960 Climbing Washington Center
10:03AM 39.4006 -77.6272 283° West 419 482 19,100 480 Climbing Washington Center
10:04AM 39.4525 -77.7658 296° West 424 488 20,000 1,620 Climbing Washington Center
10:07AM 39.6500 -78.1889 301° West 472 543 25,400 1,500 Climbing Cleveland Center
10:08AM 39.7178 -78.3350 301° West 477 549 26,000 300 Climbing Cleveland Center
10:09AM 39.7722 -78.4547 301° West 482 555 26,000  Level Cleveland Center
10:10AM 39.8417 -78.6200 299° West 477 549 26,000  Level Cleveland Center
10:11AM 39.9111 -78.7697 301° West 477 549 26,000  Level Cleveland Center
10:12AM 39.9778 -78.9197 300° West 477 549 26,000  Level Cleveland Center
10:13AM 40.0489 -79.0725 301° West 484 557 26,000  Level Cleveland Center
10:14AM 40.1133 -79.2203 300° West 478 550 26,000  Level Cleveland Center
10:15AM 40.1817 -79.3739 300° West 478 550 26,000  Level Cleveland Center
10:16AM 40.2497 -79.5222 301° West 478 550 26,000  Level Cleveland Center
10:17AM 40.3136 -79.6736 299° West 478 550 26,000  Level Cleveland Center
10:18AM 40.3794 -79.8228 300° West 478 550 26,000  Level Cleveland Center
10:19AM 40.4450 -79.9692 301° West 478 550 26,000  Level Cleveland Center
10:20AM 40.5061 -80.1217 298° West 478 550 26,000  Level Cleveland Center
10:21AM 40.5692 -80.2689 299° West 473 544 26,000  Level Cleveland Center
10:22AM 40.6361 -80.4217 300° West 473 544 26,000  Level Cleveland Center
10:23AM 40.7050 -80.5694 302° West 479 551 26,000  Level Cleveland Center
10:24AM 40.7842 -80.7283 303° West 479 551 26,000  Level Cleveland Center
10:25AM 40.8547 -80.8769 302° West 479 551 26,000  Level Cleveland Center
10:26AM 40.9253 -81.0256 302° West 479 551 26,000  Level Cleveland Center
10:27AM 40.9933 -81.1772 301° West 479 551 26,000  Level Cleveland Center
10:28AM 41.0611 -81.3267 301° West 479 551 26,000  Level Cleveland Center
10:29AM 41.1353 -81.4736 304° West 479 551 26,000  Level Cleveland Center
10:30AM 41.2047 -81.6236 302° West 479 551 26,000  Level Cleveland Center
10:31AM 41.2742 -81.7711 302° West 479 551 26,000 -300 Level Cleveland Center
10:32AM 41.3414 -81.9189 301° West 479 551 25,500 -780 Descending Cleveland Center
10:33AM 41.3961 -82.0531 299° West 473 544 24,500 -1,080 Descending Cleveland Center
10:34AM 41.4669 -82.2069 302° West 466 536 23,400 -1,860 Descending Cleveland Center
10:35AM 41.5275 -82.3417 301° West 448 516 20,800 -2,700 Descending Cleveland Center
10:35AM 41.5739 -82.4428 302° West 414 476 18,800 -2,520 Descending Cleveland Center
10:36AM 41.5978 -82.4989 300° West 403 464 17,700 -2,340 Descending Cleveland Center
10:37AM 41.6419 -82.5975 301° West 402 463 15,900 -2,400 Descending Cleveland Center
10:38AM 41.6903 -82.7047 301° West 391 450 13,500 -1,980 Descending Cleveland Center
10:39AM 41.7547 -82.8156 308° West 386 444 12,000 -780 Descending Cleveland Center
10:40AM 41.8281 -82.9044 318° Northwest 371 427 12,000  Level Cleveland Center
10:41AM 41.9033 -82.9964 318° Northwest 366 421 12,000  Level Cleveland Center
10:42AM 41.9786 -83.0858 319° Northwest 366 421 12,000  Level Cleveland Center
10:43AM 42.0556 -83.1783 318° Northwest 366 421 12,000 -300 Level Cleveland Center
10:44AM 42.1397 -83.2433 330° Northwest 354 407 11,400 -960 Descending Cleveland Center
10:45AM 42.2261 -83.1967 22° Northeast 306 352 10,100 -1,500 Descending Cleveland Center
10:46AM 42.3361 -83.1225 26° Northeast 301 346 7,900 -1,620 Descending Cleveland Center
10:47AM 42.4144 -83.0694 27° Northeast 303 349 6,400 -960 Descending Cleveland Center
10:48AM 42.4767 -83.0886 347° North 217 250 6,000 -480 Descending Cleveland Center
10:49AM 42.4522 -83.1553 244° Southwest 201 231 5,400 -540 Descending Cleveland Center
10:50AM 42.4097 -83.1928 213° Southwest 198 228 5,000 -480 Descending Cleveland Center